createdAt,value
2022-10-14T00:00:08.567Z,77.72
2022-10-14T00:03:20.406Z,78.31
2022-10-14T00:06:30.466Z,78.20
2022-10-14T00:09:36.114Z,78.48
2022-10-14T00:12:41.693Z,79.15
2022-10-14T00:15:50.068Z,79.05
2022-10-14T00:18:56.799Z,78.68
2022-10-14T00:22:02.475Z,79.32
2022-10-14T00:25:08.932Z,78.90
2022-10-14T00:28:30.045Z,79.20
2022-10-14T00:31:39.280Z,79.32
2022-10-14T00:34:45.208Z,79.20
2022-10-14T00:37:50.982Z,79.28
2022-10-14T00:41:02.055Z,79.27
2022-10-14T00:44:11.560Z,79.26
2022-10-14T00:47:23.117Z,78.58
2022-10-14T00:50:29.070Z,78.04
2022-10-14T00:53:35.669Z,78.04
2022-10-14T00:56:41.692Z,77.76
2022-10-14T00:59:49.542Z,78.34
2022-10-14T01:03:00.246Z,78.22
2022-10-14T01:06:32.070Z,78.16
2022-10-14T01:09:50.932Z,79.13
2022-10-14T01:13:28.049Z,79.51
2022-10-14T01:16:55.473Z,79.83
2022-10-14T01:20:45.999Z,80.29
2022-10-14T01:24:36.120Z,80.55
2022-10-14T01:28:16.184Z,80.75
2022-10-14T01:31:33.677Z,80.69
2022-10-14T01:34:52.602Z,80.20
2022-10-14T01:38:08.157Z,80.48
2022-10-14T01:41:24.079Z,80.74
2022-10-14T01:44:39.210Z,80.52
2022-10-14T01:47:59.857Z,80.14
2022-10-14T01:51:23.442Z,80.17
2022-10-14T01:54:38.002Z,80.47
2022-10-14T01:57:50.628Z,80.78
2022-10-14T02:00:57.730Z,80.47
2022-10-14T02:04:06.722Z,80.41
2022-10-14T02:07:32.187Z,81.05
2022-10-14T02:11:04.510Z,81.46
2022-10-14T02:14:27.998Z,81.11
2022-10-14T02:17:45.151Z,80.65
2022-10-14T02:21:08.429Z,81.02
2022-10-14T02:24:24.588Z,81.35
2022-10-14T02:27:41.090Z,81.82
2022-10-14T02:30:55.238Z,81.62
2022-10-14T02:34:14.590Z,81.56
2022-10-14T02:37:26.721Z,81.55
2022-10-14T02:40:42.808Z,81.62
2022-10-14T02:43:49.660Z,81.56
2022-10-14T02:46:57.436Z,81.41
2022-10-14T02:50:11.050Z,81.99
2022-10-14T02:53:20.927Z,82.14
2022-10-14T02:56:27.302Z,82.19
2022-10-14T02:59:32.854Z,82.71
2022-10-14T03:02:41.640Z,82.62
2022-10-14T03:05:47.396Z,81.96
2022-10-14T03:08:57.664Z,82.31
2022-10-14T03:12:03.998Z,82.54
2022-10-14T03:15:12.790Z,82.40
2022-10-14T03:18:19.282Z,82.53
2022-10-14T03:21:27.636Z,82.22
2022-10-14T03:24:36.297Z,82.25
2022-10-14T03:28:12.853Z,82.23
2022-10-14T03:31:41.648Z,82.30
2022-10-14T03:35:13.494Z,82.28
2022-10-14T03:38:22.482Z,81.89
2022-10-14T03:41:32.170Z,82.30
2022-10-14T03:44:38.862Z,81.96
2022-10-14T03:47:53.593Z,81.94
2022-10-14T03:50:59.751Z,82.03
2022-10-14T03:54:05.604Z,81.91
2022-10-14T03:57:14.667Z,81.45
2022-10-14T04:00:34.198Z,81.83
2022-10-14T04:04:07.426Z,81.50
2022-10-14T04:07:14.273Z,81.55
2022-10-14T04:10:27.542Z,82.25
2022-10-14T04:13:39.006Z,81.66
2022-10-14T04:16:48.897Z,81.33
2022-10-14T04:19:58.518Z,80.96
2022-10-14T04:23:05.045Z,81.43
2022-10-14T04:26:13.981Z,81.07
2022-10-14T04:29:25.536Z,80.26
2022-10-14T04:32:42.818Z,79.44
2022-10-14T04:35:49.600Z,79.23
2022-10-14T04:39:03.184Z,78.06
2022-10-14T04:42:09.102Z,77.93
2022-10-14T04:45:18.380Z,77.84
2022-10-14T04:48:30.269Z,77.69
2022-10-14T04:51:36.340Z,76.81
2022-10-14T04:55:00.681Z,76.05
2022-10-14T04:58:13.542Z,75.62
2022-10-14T05:01:24.298Z,74.78
2022-10-14T05:04:31.324Z,74.92
2022-10-14T05:07:39.762Z,75.11
2022-10-14T05:11:12.108Z,75.10
2022-10-14T05:14:23.079Z,75.77
2022-10-14T05:17:44.652Z,75.67
2022-10-14T05:20:53.413Z,75.27
2022-10-14T05:24:01.896Z,76.01
2022-10-14T05:27:11.236Z,76.48
2022-10-14T05:30:17.684Z,76.01
2022-10-14T05:33:30.259Z,76.52
2022-10-14T05:36:36.370Z,77.39
2022-10-14T05:39:42.153Z,78.29
2022-10-14T05:42:47.859Z,78.00
2022-10-14T05:45:54.278Z,78.04
2022-10-14T05:49:06.202Z,78.27
2022-10-14T05:52:16.032Z,78.46
2022-10-14T05:55:25.398Z,77.88
2022-10-14T05:58:38.654Z,78.27
2022-10-14T06:01:45.208Z,78.39
2022-10-14T06:04:53.419Z,78.27
2022-10-14T06:07:59.219Z,77.85
2022-10-14T06:11:07.630Z,78.26
2022-10-14T06:14:13.401Z,77.65
2022-10-14T06:17:19.771Z,76.81
2022-10-14T06:20:31.052Z,75.58
2022-10-14T06:23:36.882Z,75.51
2022-10-14T06:26:42.493Z,74.88
2022-10-14T06:29:50.305Z,74.76
2022-10-14T06:32:56.743Z,74.86
2022-10-14T06:36:07.229Z,75.32
2022-10-14T06:39:13.246Z,76.14
2022-10-14T06:42:19.088Z,75.40
2022-10-14T06:45:24.639Z,75.68
2022-10-14T06:48:30.422Z,76.11
2022-10-14T06:51:39.073Z,75.33
2022-10-14T06:54:48.184Z,74.17
2022-10-14T06:57:54.141Z,75.48
2022-10-14T07:01:05.484Z,75.50
2022-10-14T07:04:11.245Z,75.18
2022-10-14T07:07:19.454Z,76.15
2022-10-14T07:10:25.114Z,74.28
2022-10-14T07:13:30.950Z,74.32
2022-10-14T07:16:36.575Z,74.78
2022-10-14T07:19:42.164Z,74.96
2022-10-14T07:22:52.702Z,74.43
2022-10-14T07:26:00.196Z,74.62
2022-10-14T07:29:07.669Z,74.13
2022-10-14T07:32:13.211Z,73.33
2022-10-14T07:35:19.867Z,72.78
2022-10-14T07:38:28.091Z,72.84
2022-10-14T07:41:33.741Z,73.14
2022-10-14T07:44:40.102Z,71.92
2022-10-14T07:47:45.901Z,72.27
2022-10-14T07:50:53.651Z,71.04
2022-10-14T07:54:05.005Z,70.28
2022-10-14T07:57:10.774Z,70.91
2022-10-14T08:00:16.829Z,69.96
2022-10-14T08:03:24.642Z,69.46
2022-10-14T08:06:30.726Z,70.31
2022-10-14T08:09:40.520Z,70.12
2022-10-14T08:12:46.476Z,68.97
2022-10-14T08:15:52.141Z,67.94
2022-10-14T08:19:00.750Z,67.09
2022-10-14T08:22:09.377Z,65.99
2022-10-14T08:25:17.819Z,66.19
2022-10-14T08:28:23.510Z,65.77
2022-10-14T08:31:29.260Z,66.47
2022-10-14T08:34:34.833Z,65.84
2022-10-14T08:37:40.519Z,65.09
2022-10-14T08:41:10.494Z,65.84
2022-10-14T08:44:25.731Z,65.29
2022-10-14T08:47:42.056Z,65.00
2022-10-14T08:50:56.664Z,64.30
2022-10-14T08:54:15.445Z,64.26
2022-10-14T08:57:29.578Z,64.97
2022-10-14T09:00:38.970Z,64.84
2022-10-14T09:03:45.739Z,63.94
2022-10-14T09:06:56.294Z,63.38
2022-10-14T09:10:10.776Z,63.79
2022-10-14T09:13:34.172Z,63.45
2022-10-14T09:16:48.204Z,63.76
2022-10-14T09:20:16.201Z,63.17
2022-10-14T09:23:25.896Z,63.40
2022-10-14T09:26:43.723Z,62.22
2022-10-14T09:29:57.591Z,63.94
2022-10-14T09:33:03.727Z,62.71
2022-10-14T09:36:18.759Z,63.59
2022-10-14T09:39:24.609Z,64.24
2022-10-14T09:42:47.471Z,62.01
2022-10-14T09:46:03.376Z,60.47
2022-10-14T09:49:19.064Z,59.29
2022-10-14T09:52:29.391Z,57.81
2022-10-14T09:55:36.379Z,55.04
2022-10-14T09:58:51.149Z,53.02
2022-10-14T10:02:04.177Z,52.20
2022-10-14T10:05:25.521Z,50.01
2022-10-14T10:08:31.349Z,50.46
2022-10-14T10:11:40.291Z,50.04
2022-10-14T10:15:03.937Z,48.96
2022-10-14T10:18:22.427Z,48.99
2022-10-14T10:21:33.310Z,50.25
2022-10-14T10:24:39.058Z,50.10
2022-10-14T10:27:48.104Z,48.96
2022-10-14T10:31:22.148Z,48.45
2022-10-14T10:35:07.141Z,47.13
2022-10-14T10:38:31.117Z,44.05
2022-10-14T10:42:02.659Z,44.25
2022-10-14T10:45:36.833Z,41.95
2022-10-14T10:48:51.372Z,42.82
2022-10-14T10:52:17.363Z,44.60
2022-10-14T10:55:42.557Z,44.63
2022-10-14T10:59:12.301Z,44.65
2022-10-14T11:03:13.768Z,43.54
2022-10-14T11:06:58.454Z,47.52
2022-10-14T11:10:39.781Z,46.62
2022-10-14T11:13:58.673Z,46.36
2022-10-14T11:17:21.173Z,45.16
2022-10-14T11:20:50.000Z,44.87
2022-10-14T11:24:11.839Z,46.54
2022-10-14T11:27:34.492Z,47.31
2022-10-14T11:30:53.318Z,48.77
2022-10-14T11:34:22.996Z,50.04
2022-10-14T11:37:52.512Z,50.75
2022-10-14T11:41:19.392Z,51.63
2022-10-14T11:44:38.988Z,49.99
2022-10-14T11:47:53.019Z,48.35
2022-10-14T11:51:11.560Z,46.41
2022-10-14T11:54:28.823Z,45.58
2022-10-14T11:57:45.752Z,45.03
2022-10-14T12:01:02.857Z,48.25
2022-10-14T12:04:29.228Z,49.92
2022-10-14T12:07:48.082Z,51.34
2022-10-14T12:11:02.303Z,51.12
2022-10-14T12:14:19.624Z,51.90
2022-10-14T12:17:39.068Z,51.24
2022-10-14T12:20:58.342Z,50.83
2022-10-14T12:24:18.316Z,51.89
2022-10-14T12:30:45.041Z,50.55
2022-10-14T12:34:39.086Z,50.95
2022-10-14T12:37:54.515Z,51.88
2022-10-14T12:41:40.976Z,53.41
2022-10-14T12:44:56.299Z,54.15
2022-10-14T12:48:11.014Z,53.32
2022-10-14T12:51:25.320Z,52.83
2022-10-14T12:54:40.477Z,53.98
2022-10-14T12:57:47.155Z,54.15
2022-10-14T13:01:05.130Z,55.00
2022-10-14T13:04:21.327Z,54.87
2022-10-14T13:07:50.781Z,52.40
2022-10-14T13:11:16.854Z,52.50
2022-10-14T13:14:30.111Z,52.09
2022-10-14T13:17:49.654Z,51.58
2022-10-14T13:20:56.789Z,52.49
2022-10-14T13:24:15.718Z,53.87
2022-10-14T13:27:43.630Z,54.78
2022-10-14T13:31:07.715Z,55.78
2022-10-14T13:34:32.893Z,56.49
2022-10-14T13:37:45.978Z,56.22
2022-10-14T13:40:59.614Z,54.99
2022-10-14T13:44:09.059Z,56.68
2022-10-14T13:47:17.342Z,57.16
2022-10-14T13:50:36.417Z,57.96
2022-10-14T13:53:54.630Z,58.59
2022-10-14T13:57:38.183Z,57.56
2022-10-14T14:00:42.712Z,58.92
2022-10-14T14:03:56.376Z,59.05
2022-10-14T14:07:59.143Z,58.92
2022-10-14T14:10:36.361Z,59.09
2022-10-14T14:14:06.224Z,58.69
2022-10-14T14:17:22.254Z,58.73
2022-10-14T14:20:34.144Z,58.72
2022-10-14T14:23:39.722Z,59.24
2022-10-14T14:26:45.366Z,59.08
2022-10-14T14:29:57.973Z,59.19
2022-10-14T14:33:09.712Z,59.35
2022-10-14T14:36:27.471Z,59.56
2022-10-14T14:39:34.023Z,60.16
2022-10-14T14:42:43.503Z,60.40
2022-10-14T14:45:51.848Z,61.65
2022-10-14T14:49:00.682Z,62.17
2022-10-14T14:52:09.201Z,62.80
2022-10-14T14:55:40.968Z,62.95
2022-10-14T14:58:53.114Z,63.82
2022-10-14T15:02:06.075Z,63.67
2022-10-14T15:05:14.738Z,63.57
2022-10-14T15:08:27.542Z,64.95
2022-10-14T15:11:34.665Z,65.59
2022-10-14T15:14:52.826Z,65.29
2022-10-14T15:18:18.685Z,65.78
2022-10-14T15:21:31.944Z,66.58
2022-10-14T15:24:37.703Z,66.36
2022-10-14T15:27:55.692Z,66.61
2022-10-14T15:31:05.568Z,66.79
2022-10-14T15:34:23.365Z,67.12
2022-10-14T15:37:35.831Z,66.92
2022-10-14T15:40:43.180Z,67.28
2022-10-14T15:43:49.813Z,67.28
2022-10-14T15:47:07.866Z,67.17
2022-10-14T15:50:26.297Z,67.37
2022-10-14T15:53:32.323Z,67.97
2022-10-14T15:56:40.145Z,67.77
2022-10-14T15:59:46.532Z,67.87
2022-10-14T16:02:59.237Z,68.37
2022-10-14T16:06:09.466Z,68.62
2022-10-14T16:09:15.969Z,68.33
2022-10-14T16:12:21.989Z,69.08
2022-10-14T16:15:38.941Z,68.98
2022-10-14T16:18:46.590Z,69.21
2022-10-14T16:21:58.529Z,69.17
2022-10-14T16:25:04.320Z,69.25
2022-10-14T16:28:10.713Z,69.16
2022-10-14T16:31:18.339Z,69.41
2022-10-14T16:34:26.943Z,69.99
2022-10-14T16:37:35.971Z,70.37
2022-10-14T16:40:42.020Z,70.55
2022-10-14T16:43:48.389Z,70.33
2022-10-14T16:47:11.101Z,70.67
2022-10-14T16:50:16.845Z,70.60
2022-10-14T16:53:38.788Z,70.84
2022-10-14T16:56:57.182Z,71.12
2022-10-14T17:00:02.969Z,71.45
2022-10-14T17:03:17.535Z,71.57
2022-10-14T17:06:26.080Z,71.54
2022-10-14T17:09:35.657Z,71.78
2022-10-14T17:12:42.522Z,72.24
2022-10-14T17:15:48.266Z,72.49
2022-10-14T17:18:54.081Z,72.64
2022-10-14T17:21:59.772Z,72.86
2022-10-14T17:25:10.863Z,72.94
2022-10-14T17:28:16.609Z,72.78
2022-10-14T17:31:26.187Z,72.78
2022-10-14T17:34:32.054Z,72.59
2022-10-14T17:37:42.648Z,72.90
2022-10-14T17:40:53.307Z,73.30
2022-10-14T17:44:13.768Z,73.92
2022-10-14T17:47:20.254Z,74.72
2022-10-14T17:50:27.286Z,75.38
2022-10-14T17:53:34.085Z,75.75
2022-10-14T17:56:47.358Z,75.75
2022-10-14T17:59:53.012Z,76.49
2022-10-14T18:02:59.673Z,76.90
2022-10-14T18:06:16.354Z,76.88
2022-10-14T18:09:22.212Z,77.31
2022-10-14T18:12:30.646Z,77.38
2022-10-14T18:15:36.738Z,77.94
2022-10-14T18:18:44.983Z,77.70
2022-10-14T18:21:51.835Z,77.36
2022-10-14T18:24:57.463Z,76.97
2022-10-14T18:28:20.324Z,77.29
2022-10-14T18:31:29.815Z,76.77
2022-10-14T18:34:35.688Z,77.06
2022-10-14T18:37:41.296Z,76.74
2022-10-14T18:40:49.267Z,76.58
2022-10-14T18:44:00.661Z,75.93
2022-10-14T18:47:08.817Z,76.01
2022-10-14T18:50:27.455Z,75.66
2022-10-14T18:53:36.162Z,76.27
2022-10-14T18:56:42.494Z,76.34
2022-10-14T18:59:52.930Z,77.04
2022-10-14T19:02:58.754Z,76.79
2022-10-14T19:06:05.414Z,76.94
2022-10-14T19:09:29.763Z,77.02
2022-10-14T19:12:48.128Z,77.59
2022-10-14T19:16:03.484Z,77.42
2022-10-14T19:19:15.279Z,78.60
2022-10-14T19:22:21.219Z,78.72
2022-10-14T19:25:27.179Z,78.79
2022-10-14T19:28:32.816Z,78.23
2022-10-14T19:31:46.177Z,78.43
2022-10-14T19:34:51.740Z,78.13
2022-10-14T19:37:57.336Z,77.70
2022-10-14T19:41:11.528Z,77.08
2022-10-14T19:44:25.649Z,76.57
2022-10-14T19:47:35.839Z,76.35
2022-10-14T19:50:44.307Z,76.04
2022-10-14T19:53:49.972Z,75.71
2022-10-14T19:56:55.588Z,75.98
2022-10-14T20:00:01.222Z,75.72
2022-10-14T20:03:29.643Z,75.24
2022-10-14T20:06:38.731Z,75.21
2022-10-14T20:09:49.074Z,75.47
2022-10-14T20:12:56.588Z,76.09
2022-10-14T20:16:05.134Z,76.41
2022-10-14T20:19:18.486Z,76.87
2022-10-14T20:22:24.582Z,77.32
2022-10-14T20:25:30.458Z,77.35
2022-10-14T20:28:45.915Z,77.25
2022-10-14T20:31:54.638Z,76.61
2022-10-14T20:35:18.762Z,76.25
2022-10-14T20:38:24.730Z,76.47
2022-10-14T20:41:30.578Z,76.24
2022-10-14T20:48:04.614Z,77.01
2022-10-14T20:51:18.429Z,77.32
2022-10-14T20:54:26.380Z,78.04
2022-10-14T20:57:32.255Z,77.90
2022-10-14T21:00:37.884Z,77.93
2022-10-14T21:03:53.446Z,77.96
2022-10-14T21:07:04.994Z,78.73
2022-10-14T21:10:12.068Z,79.28
2022-10-14T21:13:27.250Z,79.68
2022-10-14T21:16:37.310Z,80.27
2022-10-14T21:19:42.897Z,80.77
2022-10-14T21:22:51.069Z,80.74
2022-10-14T21:26:01.300Z,80.44
2022-10-14T21:29:08.222Z,80.25
2022-10-14T21:32:16.270Z,80.75
2022-10-14T21:35:21.812Z,81.00
2022-10-14T21:38:32.174Z,81.32
2022-10-14T21:41:38.316Z,81.06
2022-10-14T21:44:43.845Z,81.08
2022-10-14T21:47:52.968Z,81.29
2022-10-14T21:51:12.623Z,81.74
2022-10-14T21:54:26.290Z,81.83
2022-10-14T21:57:31.901Z,82.42
2022-10-14T22:00:41.330Z,82.38
2022-10-14T22:03:48.066Z,82.79
2022-10-14T22:06:58.154Z,82.63
2022-10-14T22:10:29.923Z,82.49
2022-10-14T22:13:39.888Z,82.17
2022-10-14T22:16:45.510Z,82.44
2022-10-14T22:19:51.072Z,81.71
2022-10-14T22:22:59.076Z,82.04
2022-10-14T22:26:08.797Z,81.58
2022-10-14T22:29:18.575Z,79.44
2022-10-14T22:32:24.130Z,77.76
2022-10-14T22:35:29.716Z,77.23
2022-10-14T22:38:44.642Z,76.82
2022-10-14T22:41:53.907Z,76.10
2022-10-14T22:44:59.609Z,75.62
2022-10-14T22:48:05.232Z,75.80
2022-10-14T22:51:14.416Z,76.44
2022-10-14T22:54:20.138Z,75.94
2022-10-14T22:57:28.391Z,75.55
2022-10-14T23:00:34.426Z,75.14
2022-10-14T23:03:41.155Z,74.67
2022-10-14T23:06:49.573Z,75.02
2022-10-14T23:09:55.072Z,74.77
2022-10-14T23:13:19.893Z,74.02
2022-10-14T23:16:29.155Z,74.05
2022-10-14T23:19:34.899Z,73.91
2022-10-14T23:22:40.969Z,73.61
2022-10-14T23:25:50.562Z,74.58
2022-10-14T23:29:04.966Z,74.63
2022-10-14T23:32:10.647Z,76.75
2022-10-14T23:35:18.776Z,77.57
2022-10-14T23:38:24.422Z,78.38
2022-10-14T23:41:36.676Z,78.68
2022-10-14T23:44:49.492Z,78.81
2022-10-14T23:47:55.004Z,78.34
2022-10-14T23:51:00.915Z,79.13
2022-10-14T23:54:09.228Z,77.62
2022-10-14T23:57:17.888Z,76.48
